createdAt,value
2023-04-02T00:11:00.869Z,3.05
2023-04-02T00:21:57.183Z,3.05
2023-04-02T00:32:58.783Z,3.05
2023-04-02T00:43:38.738Z,3.03
2023-04-02T00:54:39.211Z,3.03
2023-04-02T01:05:38.208Z,3.03
2023-04-02T01:16:34.856Z,3.03
2023-04-02T01:27:19.822Z,3.02
2023-04-02T01:38:19.012Z,3.02
2023-04-02T01:49:20.312Z,3.01
2023-04-02T02:00:19.872Z,3.00
2023-04-02T02:11:21.483Z,3.00
2023-04-02T02:22:20.825Z,3.00
2023-04-02T02:33:20.835Z,2.99
2023-04-02T02:44:24.044Z,2.99
2023-04-02T02:55:20.209Z,2.99
2023-04-02T03:06:22.403Z,2.99
2023-04-02T03:17:24.134Z,2.98
2023-04-02T03:28:21.853Z,2.98
2023-04-02T03:39:08.555Z,2.96
2023-04-02T03:50:11.332Z,2.96
2023-04-02T04:01:15.871Z,2.96
2023-04-02T04:12:23.123Z,2.96
2023-04-02T04:23:10.942Z,2.94
2023-04-02T04:34:13.529Z,2.95
2023-04-02T04:45:19.214Z,2.95
2023-04-02T04:56:27.748Z,2.95
2023-04-02T05:07:30.466Z,2.96
2023-04-02T05:18:34.498Z,2.96
2023-04-02T05:29:30.030Z,2.97
2023-04-02T05:40:31.486Z,2.99
2023-04-02T05:51:32.558Z,3.02
2023-04-02T06:02:34.140Z,3.04
2023-04-02T06:13:34.648Z,3.06
2023-04-02T06:24:31.175Z,3.10
2023-04-02T06:35:31.616Z,3.14
2023-04-02T06:46:33.588Z,3.18
2023-04-02T06:57:28.459Z,3.22
2023-04-02T07:08:25.082Z,3.26
2023-04-02T07:19:13.535Z,3.29
2023-04-02T07:30:08.627Z,3.32
2023-04-02T07:41:08.144Z,3.28
2023-04-02T07:51:58.016Z,3.28
2023-04-02T08:02:45.364Z,3.28
2023-04-02T08:13:32.889Z,3.29
2023-04-02T08:24:28.137Z,3.28
2023-04-02T08:35:25.793Z,3.30
2023-04-02T08:46:27.016Z,3.29
2023-04-02T08:57:22.603Z,3.30
2023-04-02T09:08:13.631Z,3.31
2023-04-02T09:19:10.725Z,3.30
2023-04-02T09:30:10.580Z,3.32
2023-04-02T09:41:06.442Z,3.33
2023-04-02T09:51:58.876Z,3.32
2023-04-02T10:02:51.621Z,3.32
2023-04-02T10:13:49.196Z,3.32
2023-04-02T10:24:45.833Z,3.34
2023-04-02T10:35:46.344Z,3.34
2023-04-02T10:46:44.964Z,3.34
2023-04-02T10:57:43.036Z,3.36
2023-04-02T11:08:42.751Z,3.33
2023-04-02T11:19:33.958Z,3.32
2023-04-02T11:30:32.483Z,3.34
2023-04-02T11:41:31.745Z,3.33
2023-04-02T11:52:29.288Z,3.37
2023-04-02T12:03:04.529Z,3.33
2023-04-02T12:14:03.003Z,3.33
2023-04-02T12:24:53.068Z,3.36
2023-04-02T12:35:47.610Z,3.34
2023-04-02T12:46:32.228Z,3.36
2023-04-02T12:57:30.595Z,3.35
2023-04-02T13:08:02.696Z,3.33
2023-04-02T13:18:54.844Z,3.33
2023-04-02T13:29:44.663Z,3.34
2023-04-02T13:40:42.889Z,3.34
2023-04-02T13:51:29.154Z,3.44
2023-04-02T14:02:18.106Z,3.38
2023-04-02T14:13:02.241Z,3.44
2023-04-02T14:23:35.800Z,3.37
2023-04-02T14:34:36.679Z,3.39
2023-04-02T14:45:17.673Z,3.36
2023-04-02T14:55:52.900Z,3.34
2023-04-02T15:06:34.428Z,3.34
2023-04-02T15:17:32.524Z,3.34
2023-04-02T15:28:21.907Z,3.34
2023-04-02T15:39:19.285Z,3.35
2023-04-02T15:49:51.231Z,3.37
2023-04-02T16:00:39.903Z,3.37
2023-04-02T16:11:30.949Z,3.37
2023-04-02T16:22:20.307Z,3.36
2023-04-02T16:33:17.587Z,3.36
2023-04-02T16:44:08.289Z,3.34
2023-04-02T16:55:07.325Z,3.33
2023-04-02T17:06:02.944Z,3.31
2023-04-02T17:17:01.599Z,3.29
2023-04-02T17:28:01.430Z,3.28
2023-04-02T17:39:00.470Z,3.27
2023-04-02T17:49:47.985Z,3.26
2023-04-02T18:00:42.293Z,3.25
2023-04-02T18:11:40.875Z,3.24
2023-04-02T18:22:38.933Z,3.23
2023-04-02T18:33:27.772Z,3.22
2023-04-02T18:44:19.387Z,3.22
2023-04-02T18:55:04.487Z,3.21
2023-04-02T19:06:04.133Z,3.21
2023-04-02T19:17:01.546Z,3.20
2023-04-02T19:27:54.346Z,3.19
2023-04-02T19:38:48.900Z,3.18
2023-04-02T19:49:46.222Z,3.18
2023-04-02T20:00:35.369Z,3.17
2023-04-02T20:11:29.944Z,3.16
2023-04-02T20:22:24.955Z,3.15
2023-04-02T20:33:23.006Z,3.15
2023-04-02T20:44:00.038Z,3.14
2023-04-02T20:54:36.386Z,3.12
2023-04-02T21:05:33.912Z,3.12
2023-04-02T21:16:33.864Z,3.12
2023-04-02T21:27:33.000Z,3.11
2023-04-02T21:38:33.538Z,3.11
2023-04-02T21:49:34.572Z,3.10
2023-04-02T22:00:35.151Z,3.10
2023-04-02T22:11:35.068Z,3.09
2023-04-02T22:22:34.737Z,3.09
2023-04-02T22:33:34.549Z,3.08
2023-04-02T22:44:35.421Z,3.07
2023-04-02T22:55:35.036Z,3.07
2023-04-02T23:06:36.106Z,3.07
2023-04-02T23:17:15.517Z,3.05
2023-04-02T23:28:16.890Z,3.05
2023-04-02T23:39:17.642Z,3.04
2023-04-02T23:50:16.438Z,3.04
